sensor_id;sensor_type;location;lat;lon;timestamp;P1;durP1;ratioP1;P2;durP2;ratioP2
20034;SDS011;10178;48.034;9.800;2023-12-20T00:01:57;3.93;;;2.90;;
20034;SDS011;10178;48.034;9.800;2023-12-20T00:04:22;3.10;;;2.50;;
20034;SDS011;10178;48.034;9.800;2023-12-20T00:06:51;3.60;;;2.80;;
20034;SDS011;10178;48.034;9.800;2023-12-20T00:09:17;4.60;;;2.97;;
20034;SDS011;10178;48.034;9.800;2023-12-20T00:11:42;3.90;;;3.03;;
20034;SDS011;10178;48.034;9.800;2023-12-20T00:14:08;4.07;;;2.97;;
20034;SDS011;10178;48.034;9.800;2023-12-20T00:16:34;4.00;;;3.20;;
20034;SDS011;10178;48.034;9.800;2023-12-20T00:18:59;3.97;;;2.87;;
20034;SDS011;10178;48.034;9.800;2023-12-20T00:21:25;3.80;;;2.80;;
20034;SDS011;10178;48.034;9.800;2023-12-20T00:23:51;7.23;;;3.43;;
20034;SDS011;10178;48.034;9.800;2023-12-20T00:26:17;4.00;;;3.23;;
20034;SDS011;10178;48.034;9.800;2023-12-20T00:28:43;4.70;;;3.97;;
20034;SDS011;10178;48.034;9.800;2023-12-20T00:31:08;5.47;;;3.83;;
20034;SDS011;10178;48.034;9.800;2023-12-20T00:33:34;5.77;;;3.80;;
20034;SDS011;10178;48.034;9.800;2023-12-20T00:35:59;5.20;;;3.67;;
20034;SDS011;10178;48.034;9.800;2023-12-20T00:38:25;4.50;;;3.57;;
20034;SDS011;10178;48.034;9.800;2023-12-20T00:40:51;5.20;;;3.53;;
20034;SDS011;10178;48.034;9.800;2023-12-20T00:43:16;4.90;;;3.13;;
20034;SDS011;10178;48.034;9.800;2023-12-20T00:45:42;5.10;;;3.60;;
20034;SDS011;10178;48.034;9.800;2023-12-20T00:48:07;5.13;;;3.30;;
20034;SDS011;10178;48.034;9.800;2023-12-20T00:50:33;5.10;;;3.50;;
20034;SDS011;10178;48.034;9.800;2023-12-20T00:52:59;4.47;;;3.67;;
20034;SDS011;10178;48.034;9.800;2023-12-20T00:55:24;6.47;;;3.60;;
20034;SDS011;10178;48.034;9.800;2023-12-20T00:57:50;3.90;;;3.00;;
20034;SDS011;10178;48.034;9.800;2023-12-20T01:00:15;4.10;;;3.30;;
20034;SDS011;10178;48.034;9.800;2023-12-20T01:02:41;3.53;;;3.20;;
20034;SDS011;10178;48.034;9.800;2023-12-20T01:05:07;5.30;;;3.50;;
20034;SDS011;10178;48.034;9.800;2023-12-20T01:07:34;6.00;;;3.80;;
20034;SDS011;10178;48.034;9.800;2023-12-20T01:10:00;4.63;;;3.07;;
20034;SDS011;10178;48.034;9.800;2023-12-20T01:12:25;4.10;;;3.30;;
20034;SDS011;10178;48.034;9.800;2023-12-20T01:14:51;5.67;;;3.70;;
20034;SDS011;10178;48.034;9.800;2023-12-20T01:17:16;5.50;;;3.50;;
20034;SDS011;10178;48.034;9.800;2023-12-20T01:19:42;4.30;;;3.53;;
20034;SDS011;10178;48.034;9.800;2023-12-20T01:22:07;3.70;;;3.27;;
20034;SDS011;10178;48.034;9.800;2023-12-20T01:24:33;4.60;;;3.30;;
20034;SDS011;10178;48.034;9.800;2023-12-20T01:26:59;3.97;;;3.10;;
20034;SDS011;10178;48.034;9.800;2023-12-20T01:29:24;4.43;;;3.30;;
20034;SDS011;10178;48.034;9.800;2023-12-20T01:31:50;4.63;;;3.60;;
20034;SDS011;10178;48.034;9.800;2023-12-20T01:34:16;4.20;;;2.97;;
20034;SDS011;10178;48.034;9.800;2023-12-20T01:36:42;4.63;;;3.43;;
20034;SDS011;10178;48.034;9.800;2023-12-20T01:39:07;4.17;;;3.33;;
20034;SDS011;10178;48.034;9.800;2023-12-20T01:41:33;3.67;;;3.03;;
20034;SDS011;10178;48.034;9.800;2023-12-20T01:43:59;6.07;;;3.20;;
20034;SDS011;10178;48.034;9.800;2023-12-20T01:46:24;5.00;;;3.23;;
20034;SDS011;10178;48.034;9.800;2023-12-20T01:48:51;3.77;;;3.20;;
20034;SDS011;10178;48.034;9.800;2023-12-20T01:51:17;3.10;;;2.80;;
20034;SDS011;10178;48.034;9.800;2023-12-20T01:53:44;4.90;;;3.00;;
20034;SDS011;10178;48.034;9.800;2023-12-20T01:56:10;3.50;;;2.93;;
20034;SDS011;10178;48.034;9.800;2023-12-20T01:58:38;3.57;;;3.13;;
20034;SDS011;10178;48.034;9.800;2023-12-20T02:01:07;4.57;;;3.00;;
20034;SDS011;10178;48.034;9.800;2023-12-20T02:03:32;3.70;;;3.07;;
20034;SDS011;10178;48.034;9.800;2023-12-20T02:06:01;4.23;;;3.20;;
20034;SDS011;10178;48.034;9.800;2023-12-20T02:08:36;3.07;;;2.77;;
20034;SDS011;10178;48.034;9.800;2023-12-20T02:11:01;3.50;;;3.10;;
20034;SDS011;10178;48.034;9.800;2023-12-20T02:13:27;3.70;;;2.90;;
20034;SDS011;10178;48.034;9.800;2023-12-20T02:16:14;3.47;;;2.90;;
20034;SDS011;10178;48.034;9.800;2023-12-20T02:18:39;4.00;;;3.30;;
20034;SDS011;10178;48.034;9.800;2023-12-20T02:21:09;3.33;;;2.90;;
20034;SDS011;10178;48.034;9.800;2023-12-20T02:23:35;5.73;;;3.40;;
20034;SDS011;10178;48.034;9.800;2023-12-20T02:26:00;4.10;;;3.20;;
20034;SDS011;10178;48.034;9.800;2023-12-20T02:28:26;6.30;;;3.37;;
20034;SDS011;10178;48.034;9.800;2023-12-20T02:30:52;4.70;;;3.57;;
20034;SDS011;10178;48.034;9.800;2023-12-20T02:33:18;3.57;;;3.27;;
20034;SDS011;10178;48.034;9.800;2023-12-20T02:35:43;3.97;;;3.27;;
20034;SDS011;10178;48.034;9.800;2023-12-20T02:38:09;5.33;;;3.73;;
20034;SDS011;10178;48.034;9.800;2023-12-20T02:40:35;4.27;;;3.37;;
20034;SDS011;10178;48.034;9.800;2023-12-20T02:43:00;4.00;;;3.33;;
20034;SDS011;10178;48.034;9.800;2023-12-20T02:45:26;4.30;;;3.17;;
20034;SDS011;10178;48.034;9.800;2023-12-20T02:47:52;4.53;;;3.60;;
20034;SDS011;10178;48.034;9.800;2023-12-20T02:50:18;5.97;;;3.87;;
20034;SDS011;10178;48.034;9.800;2023-12-20T02:52:44;3.00;;;2.70;;
20034;SDS011;10178;48.034;9.800;2023-12-20T02:55:10;4.00;;;3.20;;
20034;SDS011;10178;48.034;9.800;2023-12-20T02:57:36;4.03;;;3.03;;
20034;SDS011;10178;48.034;9.800;2023-12-20T03:00:06;5.00;;;3.57;;
20034;SDS011;10178;48.034;9.800;2023-12-20T03:02:35;3.70;;;3.07;;
20034;SDS011;10178;48.034;9.800;2023-12-20T03:05:01;4.43;;;3.40;;
20034;SDS011;10178;48.034;9.800;2023-12-20T03:07:27;4.17;;;3.53;;
20034;SDS011;10178;48.034;9.800;2023-12-20T03:09:53;3.57;;;2.70;;
20034;SDS011;10178;48.034;9.800;2023-12-20T03:12:19;2.97;;;2.63;;
20034;SDS011;10178;48.034;9.800;2023-12-20T03:14:44;3.00;;;2.70;;
20034;SDS011;10178;48.034;9.800;2023-12-20T03:17:10;3.00;;;2.70;;
20034;SDS011;10178;48.034;9.800;2023-12-20T03:19:36;4.23;;;3.40;;
20034;SDS011;10178;48.034;9.800;2023-12-20T03:22:01;4.20;;;3.07;;
20034;SDS011;10178;48.034;9.800;2023-12-20T03:24:27;3.87;;;2.90;;
20034;SDS011;10178;48.034;9.800;2023-12-20T03:26:53;3.47;;;2.67;;
20034;SDS011;10178;48.034;9.800;2023-12-20T03:29:18;3.90;;;2.80;;
20034;SDS011;10178;48.034;9.800;2023-12-20T03:31:48;4.93;;;2.80;;
20034;SDS011;10178;48.034;9.800;2023-12-20T03:34:20;4.03;;;2.83;;
20034;SDS011;10178;48.034;9.800;2023-12-20T03:36:45;3.27;;;2.70;;
20034;SDS011;10178;48.034;9.800;2023-12-20T03:39:12;3.87;;;3.10;;
20034;SDS011;10178;48.034;9.800;2023-12-20T03:41:38;4.07;;;3.17;;
20034;SDS011;10178;48.034;9.800;2023-12-20T03:44:04;8.07;;;3.83;;
20034;SDS011;10178;48.034;9.800;2023-12-20T03:46:29;3.63;;;2.80;;
20034;SDS011;10178;48.034;9.800;2023-12-20T03:49:07;5.57;;;3.40;;
20034;SDS011;10178;48.034;9.800;2023-12-20T03:51:33;4.97;;;3.20;;
20034;SDS011;10178;48.034;9.800;2023-12-20T03:54:00;5.97;;;3.67;;
20034;SDS011;10178;48.034;9.800;2023-12-20T03:56:25;5.57;;;4.27;;
20034;SDS011;10178;48.034;9.800;2023-12-20T03:58:52;4.70;;;3.30;;
20034;SDS011;10178;48.034;9.800;2023-12-20T04:01:20;5.07;;;3.83;;
20034;SDS011;10178;48.034;9.800;2023-12-20T04:03:45;6.47;;;4.30;;
20034;SDS011;10178;48.034;9.800;2023-12-20T04:06:16;6.63;;;5.03;;
20034;SDS011;10178;48.034;9.800;2023-12-20T04:08:44;5.47;;;4.00;;
20034;SDS011;10178;48.034;9.800;2023-12-20T04:11:10;4.97;;;4.00;;
20034;SDS011;10178;48.034;9.800;2023-12-20T04:13:36;8.73;;;6.17;;
20034;SDS011;10178;48.034;9.800;2023-12-20T04:16:01;6.13;;;4.17;;
20034;SDS011;10178;48.034;9.800;2023-12-20T04:18:27;8.87;;;4.53;;
20034;SDS011;10178;48.034;9.800;2023-12-20T04:20:53;5.27;;;4.17;;
20034;SDS011;10178;48.034;9.800;2023-12-20T04:23:19;5.97;;;5.00;;
20034;SDS011;10178;48.034;9.800;2023-12-20T04:25:44;9.37;;;6.80;;
20034;SDS011;10178;48.034;9.800;2023-12-20T04:28:10;8.93;;;6.90;;
20034;SDS011;10178;48.034;9.800;2023-12-20T04:30:35;12.13;;;6.13;;
20034;SDS011;10178;48.034;9.800;2023-12-20T04:33:01;9.60;;;6.23;;
20034;SDS011;10178;48.034;9.800;2023-12-20T04:35:27;13.33;;;8.13;;
20034;SDS011;10178;48.034;9.800;2023-12-20T04:37:53;9.77;;;6.70;;
20034;SDS011;10178;48.034;9.800;2023-12-20T04:40:22;10.07;;;5.93;;
20034;SDS011;10178;48.034;9.800;2023-12-20T04:42:48;8.87;;;6.60;;
20034;SDS011;10178;48.034;9.800;2023-12-20T04:45:13;9.33;;;6.83;;
20034;SDS011;10178;48.034;9.800;2023-12-20T04:47:41;13.33;;;8.50;;
20034;SDS011;10178;48.034;9.800;2023-12-20T04:50:07;14.87;;;11.83;;
20034;SDS011;10178;48.034;9.800;2023-12-20T04:52:34;12.97;;;9.03;;
20034;SDS011;10178;48.034;9.800;2023-12-20T04:55:00;12.97;;;7.43;;
20034;SDS011;10178;48.034;9.800;2023-12-20T04:57:26;11.80;;;8.60;;
20034;SDS011;10178;48.034;9.800;2023-12-20T04:59:51;9.00;;;7.13;;
20034;SDS011;10178;48.034;9.800;2023-12-20T05:02:17;11.37;;;7.77;;
20034;SDS011;10178;48.034;9.800;2023-12-20T05:04:43;13.90;;;8.97;;
20034;SDS011;10178;48.034;9.800;2023-12-20T05:07:08;11.80;;;8.60;;
20034;SDS011;10178;48.034;9.800;2023-12-20T05:09:34;9.73;;;7.30;;
20034;SDS011;10178;48.034;9.800;2023-12-20T05:11:59;8.83;;;6.57;;
20034;SDS011;10178;48.034;9.800;2023-12-20T05:14:25;12.90;;;10.03;;
20034;SDS011;10178;48.034;9.800;2023-12-20T05:16:51;12.60;;;8.53;;
20034;SDS011;10178;48.034;9.800;2023-12-20T05:19:16;10.33;;;7.27;;
20034;SDS011;10178;48.034;9.800;2023-12-20T05:21:42;9.67;;;7.80;;
20034;SDS011;10178;48.034;9.800;2023-12-20T05:24:07;11.63;;;7.10;;
20034;SDS011;10178;48.034;9.800;2023-12-20T05:26:33;10.20;;;7.07;;
20034;SDS011;10178;48.034;9.800;2023-12-20T05:28:59;8.90;;;6.13;;
20034;SDS011;10178;48.034;9.800;2023-12-20T05:31:24;8.10;;;6.03;;
20034;SDS011;10178;48.034;9.800;2023-12-20T05:33:50;8.13;;;6.37;;
20034;SDS011;10178;48.034;9.800;2023-12-20T05:36:15;7.50;;;6.10;;
20034;SDS011;10178;48.034;9.800;2023-12-20T05:38:41;7.27;;;5.97;;
20034;SDS011;10178;48.034;9.800;2023-12-20T05:41:07;7.80;;;6.30;;
20034;SDS011;10178;48.034;9.800;2023-12-20T05:43:32;7.70;;;5.97;;
20034;SDS011;10178;48.034;9.800;2023-12-20T05:45:58;10.07;;;5.97;;
20034;SDS011;10178;48.034;9.800;2023-12-20T05:48:23;7.13;;;5.30;;
20034;SDS011;10178;48.034;9.800;2023-12-20T05:50:49;7.17;;;5.67;;
20034;SDS011;10178;48.034;9.800;2023-12-20T05:53:15;7.93;;;5.40;;
20034;SDS011;10178;48.034;9.800;2023-12-20T05:55:40;7.53;;;5.77;;
20034;SDS011;10178;48.034;9.800;2023-12-20T05:58:06;6.43;;;5.00;;
20034;SDS011;10178;48.034;9.800;2023-12-20T06:00:31;8.40;;;5.57;;
20034;SDS011;10178;48.034;9.800;2023-12-20T06:02:57;6.70;;;5.30;;
20034;SDS011;10178;48.034;9.800;2023-12-20T06:05:22;6.73;;;5.03;;
20034;SDS011;10178;48.034;9.800;2023-12-20T06:07:48;6.00;;;4.80;;
20034;SDS011;10178;48.034;9.800;2023-12-20T06:10:15;6.27;;;4.87;;
20034;SDS011;10178;48.034;9.800;2023-12-20T06:12:41;8.00;;;5.53;;
20034;SDS011;10178;48.034;9.800;2023-12-20T06:15:07;9.83;;;6.20;;
20034;SDS011;10178;48.034;9.800;2023-12-20T06:17:33;5.60;;;4.50;;
20034;SDS011;10178;48.034;9.800;2023-12-20T06:20:00;5.93;;;4.70;;
20034;SDS011;10178;48.034;9.800;2023-12-20T06:22:26;7.47;;;6.07;;
20034;SDS011;10178;48.034;9.800;2023-12-20T06:24:51;8.13;;;5.30;;
20034;SDS011;10178;48.034;9.800;2023-12-20T06:27:17;5.57;;;4.73;;
20034;SDS011;10178;48.034;9.800;2023-12-20T06:29:42;4.80;;;4.07;;
20034;SDS011;10178;48.034;9.800;2023-12-20T06:32:09;6.00;;;4.33;;
20034;SDS011;10178;48.034;9.800;2023-12-20T06:34:35;8.07;;;6.70;;
20034;SDS011;10178;48.034;9.800;2023-12-20T06:37:01;5.40;;;4.37;;
20034;SDS011;10178;48.034;9.800;2023-12-20T06:39:27;6.47;;;5.07;;
20034;SDS011;10178;48.034;9.800;2023-12-20T06:41:53;5.63;;;3.87;;
20034;SDS011;10178;48.034;9.800;2023-12-20T06:44:18;4.43;;;3.93;;
20034;SDS011;10178;48.034;9.800;2023-12-20T06:46:44;4.70;;;3.73;;
20034;SDS011;10178;48.034;9.800;2023-12-20T06:49:09;4.73;;;3.83;;
20034;SDS011;10178;48.034;9.800;2023-12-20T06:51:35;5.40;;;4.37;;
20034;SDS011;10178;48.034;9.800;2023-12-20T06:54:03;5.33;;;4.47;;
20034;SDS011;10178;48.034;9.800;2023-12-20T06:56:28;4.90;;;4.40;;
20034;SDS011;10178;48.034;9.800;2023-12-20T06:58:54;5.43;;;3.87;;
20034;SDS011;10178;48.034;9.800;2023-12-20T07:01:19;4.80;;;4.00;;
20034;SDS011;10178;48.034;9.800;2023-12-20T07:03:45;8.67;;;4.47;;
20034;SDS011;10178;48.034;9.800;2023-12-20T07:06:11;4.90;;;3.80;;
20034;SDS011;10178;48.034;9.800;2023-12-20T07:08:36;7.03;;;4.53;;
20034;SDS011;10178;48.034;9.800;2023-12-20T07:11:02;5.03;;;3.90;;
20034;SDS011;10178;48.034;9.800;2023-12-20T07:13:28;5.40;;;4.03;;
20034;SDS011;10178;48.034;9.800;2023-12-20T07:15:54;4.57;;;3.50;;
20034;SDS011;10178;48.034;9.800;2023-12-20T07:18:20;5.77;;;4.27;;
20034;SDS011;10178;48.034;9.800;2023-12-20T07:20:45;7.13;;;4.83;;
20034;SDS011;10178;48.034;9.800;2023-12-20T07:23:11;5.77;;;4.47;;
20034;SDS011;10178;48.034;9.800;2023-12-20T07:25:36;5.67;;;4.23;;
20034;SDS011;10178;48.034;9.800;2023-12-20T07:28:02;5.80;;;4.20;;
20034;SDS011;10178;48.034;9.800;2023-12-20T07:30:28;7.80;;;5.40;;
20034;SDS011;10178;48.034;9.800;2023-12-20T07:32:53;5.70;;;4.53;;
20034;SDS011;10178;48.034;9.800;2023-12-20T07:35:19;7.27;;;5.53;;
20034;SDS011;10178;48.034;9.800;2023-12-20T07:37:45;8.33;;;6.10;;
20034;SDS011;10178;48.034;9.800;2023-12-20T07:40:10;6.57;;;4.90;;
20034;SDS011;10178;48.034;9.800;2023-12-20T07:42:36;5.17;;;4.40;;
20034;SDS011;10178;48.034;9.800;2023-12-20T07:45:02;5.57;;;4.60;;
20034;SDS011;10178;48.034;9.800;2023-12-20T07:47:28;5.93;;;4.30;;
20034;SDS011;10178;48.034;9.800;2023-12-20T07:49:54;6.07;;;4.20;;
20034;SDS011;10178;48.034;9.800;2023-12-20T07:52:19;6.07;;;4.93;;
20034;SDS011;10178;48.034;9.800;2023-12-20T07:54:46;6.13;;;4.50;;
20034;SDS011;10178;48.034;9.800;2023-12-20T07:57:12;5.23;;;4.30;;
20034;SDS011;10178;48.034;9.800;2023-12-20T07:59:38;7.20;;;5.50;;
20034;SDS011;10178;48.034;9.800;2023-12-20T08:02:03;5.87;;;4.77;;
20034;SDS011;10178;48.034;9.800;2023-12-20T08:04:29;6.87;;;5.03;;
20034;SDS011;10178;48.034;9.800;2023-12-20T08:06:55;6.27;;;5.60;;
20034;SDS011;10178;48.034;9.800;2023-12-20T08:09:20;7.80;;;4.50;;
20034;SDS011;10178;48.034;9.800;2023-12-20T08:11:47;6.17;;;4.63;;
20034;SDS011;10178;48.034;9.800;2023-12-20T08:14:13;6.30;;;4.60;;
20034;SDS011;10178;48.034;9.800;2023-12-20T08:16:40;8.73;;;5.40;;
20034;SDS011;10178;48.034;9.800;2023-12-20T08:19:06;6.33;;;4.40;;
20034;SDS011;10178;48.034;9.800;2023-12-20T08:21:32;4.83;;;3.83;;
20034;SDS011;10178;48.034;9.800;2023-12-20T08:23:58;6.30;;;4.60;;
20034;SDS011;10178;48.034;9.800;2023-12-20T08:26:25;7.10;;;5.53;;
20034;SDS011;10178;48.034;9.800;2023-12-20T08:28:51;7.83;;;5.30;;
20034;SDS011;10178;48.034;9.800;2023-12-20T08:31:17;5.30;;;4.13;;
20034;SDS011;10178;48.034;9.800;2023-12-20T08:33:43;6.00;;;4.73;;
20034;SDS011;10178;48.034;9.800;2023-12-20T08:36:11;6.20;;;4.93;;
20034;SDS011;10178;48.034;9.800;2023-12-20T08:38:37;6.93;;;5.10;;
20034;SDS011;10178;48.034;9.800;2023-12-20T08:41:03;6.23;;;5.07;;
20034;SDS011;10178;48.034;9.800;2023-12-20T08:43:32;4.40;;;4.00;;
20034;SDS011;10178;48.034;9.800;2023-12-20T08:45:59;5.90;;;4.70;;
20034;SDS011;10178;48.034;9.800;2023-12-20T08:48:25;5.93;;;4.83;;
20034;SDS011;10178;48.034;9.800;2023-12-20T08:50:50;5.70;;;4.73;;
20034;SDS011;10178;48.034;9.800;2023-12-20T08:53:17;6.70;;;5.33;;
20034;SDS011;10178;48.034;9.800;2023-12-20T08:55:43;5.63;;;4.50;;
20034;SDS011;10178;48.034;9.800;2023-12-20T08:58:09;7.13;;;5.33;;
20034;SDS011;10178;48.034;9.800;2023-12-20T09:00:35;5.20;;;4.27;;
20034;SDS011;10178;48.034;9.800;2023-12-20T09:03:01;5.83;;;4.53;;
20034;SDS011;10178;48.034;9.800;2023-12-20T09:05:27;6.83;;;4.97;;
20034;SDS011;10178;48.034;9.800;2023-12-20T09:07:53;7.33;;;5.63;;
20034;SDS011;10178;48.034;9.800;2023-12-20T09:10:21;6.53;;;5.23;;
20034;SDS011;10178;48.034;9.800;2023-12-20T09:12:51;6.00;;;4.30;;
20034;SDS011;10178;48.034;9.800;2023-12-20T09:15:21;5.93;;;4.23;;
20034;SDS011;10178;48.034;9.800;2023-12-20T09:17:49;7.33;;;5.07;;
20034;SDS011;10178;48.034;9.800;2023-12-20T09:20:17;6.47;;;5.20;;
20034;SDS011;10178;48.034;9.800;2023-12-20T09:22:43;5.60;;;5.00;;
20034;SDS011;10178;48.034;9.800;2023-12-20T09:25:12;6.53;;;5.17;;
20034;SDS011;10178;48.034;9.800;2023-12-20T09:27:38;6.37;;;5.03;;
20034;SDS011;10178;48.034;9.800;2023-12-20T09:30:04;5.47;;;4.77;;
20034;SDS011;10178;48.034;9.800;2023-12-20T09:32:31;6.47;;;4.60;;
20034;SDS011;10178;48.034;9.800;2023-12-20T09:34:56;7.07;;;4.47;;
20034;SDS011;10178;48.034;9.800;2023-12-20T09:37:22;5.13;;;4.03;;
20034;SDS011;10178;48.034;9.800;2023-12-20T09:39:51;5.03;;;4.50;;
20034;SDS011;10178;48.034;9.800;2023-12-20T09:42:17;4.80;;;4.20;;
20034;SDS011;10178;48.034;9.800;2023-12-20T09:45:15;4.17;;;3.77;;
20034;SDS011;10178;48.034;9.800;2023-12-20T09:47:43;7.87;;;4.57;;
20034;SDS011;10178;48.034;9.800;2023-12-20T09:50:10;5.53;;;4.90;;
20034;SDS011;10178;48.034;9.800;2023-12-20T09:52:37;5.10;;;4.17;;
20034;SDS011;10178;48.034;9.800;2023-12-20T09:55:04;5.43;;;4.40;;
20034;SDS011;10178;48.034;9.800;2023-12-20T09:57:33;5.77;;;4.30;;
20034;SDS011;10178;48.034;9.800;2023-12-20T09:59:59;6.20;;;4.90;;
20034;SDS011;10178;48.034;9.800;2023-12-20T10:02:25;4.70;;;4.20;;
20034;SDS011;10178;48.034;9.800;2023-12-20T10:04:52;4.57;;;3.93;;
20034;SDS011;10178;48.034;9.800;2023-12-20T10:07:19;5.33;;;3.60;;
20034;SDS011;10178;48.034;9.800;2023-12-20T10:09:46;4.80;;;4.30;;
20034;SDS011;10178;48.034;9.800;2023-12-20T10:12:12;4.40;;;3.83;;
20034;SDS011;10178;48.034;9.800;2023-12-20T10:14:41;5.23;;;3.67;;
20034;SDS011;10178;48.034;9.800;2023-12-20T10:17:06;6.00;;;4.70;;
20034;SDS011;10178;48.034;9.800;2023-12-20T10:19:33;3.97;;;3.57;;
20034;SDS011;10178;48.034;9.800;2023-12-20T10:22:03;3.67;;;3.37;;
20034;SDS011;10178;48.034;9.800;2023-12-20T10:24:30;4.13;;;3.63;;
20034;SDS011;10178;48.034;9.800;2023-12-20T10:27:02;4.63;;;3.50;;
20034;SDS011;10178;48.034;9.800;2023-12-20T10:29:31;4.10;;;3.70;;
20034;SDS011;10178;48.034;9.800;2023-12-20T10:32:08;4.20;;;3.53;;
20034;SDS011;10178;48.034;9.800;2023-12-20T10:34:50;4.27;;;3.47;;
20034;SDS011;10178;48.034;9.800;2023-12-20T10:37:16;3.47;;;2.93;;
20034;SDS011;10178;48.034;9.800;2023-12-20T10:39:42;4.00;;;2.70;;
20034;SDS011;10178;48.034;9.800;2023-12-20T10:42:09;3.50;;;2.90;;
20034;SDS011;10178;48.034;9.800;2023-12-20T10:44:37;3.10;;;2.80;;
20034;SDS011;10178;48.034;9.800;2023-12-20T10:47:03;5.60;;;3.17;;
20034;SDS011;10178;48.034;9.800;2023-12-20T10:49:30;3.00;;;2.70;;
20034;SDS011;10178;48.034;9.800;2023-12-20T10:51:56;3.70;;;3.07;;
20034;SDS011;10178;48.034;9.800;2023-12-20T10:54:26;3.20;;;2.80;;
20034;SDS011;10178;48.034;9.800;2023-12-20T10:56:53;3.27;;;2.97;;
20034;SDS011;10178;48.034;9.800;2023-12-20T10:59:21;2.87;;;2.57;;
20034;SDS011;10178;48.034;9.800;2023-12-20T11:01:49;3.87;;;2.63;;
20034;SDS011;10178;48.034;9.800;2023-12-20T11:04:17;2.77;;;2.57;;
20034;SDS011;10178;48.034;9.800;2023-12-20T11:06:49;3.13;;;2.43;;
20034;SDS011;10178;48.034;9.800;2023-12-20T11:09:24;3.13;;;2.40;;
20034;SDS011;10178;48.034;9.800;2023-12-20T11:11:59;4.27;;;2.17;;
20034;SDS011;10178;48.034;9.800;2023-12-20T11:17:07;1.90;;;1.70;;
20034;SDS011;10178;48.034;9.800;2023-12-20T11:19:35;2.07;;;1.83;;
20034;SDS011;10178;48.034;9.800;2023-12-20T11:22:06;2.07;;;1.83;;
20034;SDS011;10178;48.034;9.800;2023-12-20T11:24:32;1.90;;;1.67;;
20034;SDS011;10178;48.034;9.800;2023-12-20T11:26:59;3.87;;;1.77;;
20034;SDS011;10178;48.034;9.800;2023-12-20T11:29:31;2.10;;;1.75;;
20034;SDS011;10178;48.034;9.800;2023-12-20T11:37:37;2.20;;;1.43;;
20034;SDS011;10178;48.034;9.800;2023-12-20T11:40:13;1.97;;;1.50;;
20034;SDS011;10178;48.034;9.800;2023-12-20T11:42:41;1.93;;;1.40;;
20034;SDS011;10178;48.034;9.800;2023-12-20T11:45:15;3.10;;;1.53;;
20034;SDS011;10178;48.034;9.800;2023-12-20T11:47:47;5.43;;;1.70;;
20034;SDS011;10178;48.034;9.800;2023-12-20T11:50:19;4.77;;;1.53;;
20034;SDS011;10178;48.034;9.800;2023-12-20T11:52:46;3.93;;;1.40;;
20034;SDS011;10178;48.034;9.800;2023-12-20T11:55:12;1.98;;;1.10;;
20034;SDS011;10178;48.034;9.800;2023-12-20T11:57:37;1.80;;;0.97;;
20034;SDS011;10178;48.034;9.800;2023-12-20T12:00:03;2.60;;;0.97;;
20034;SDS011;10178;48.034;9.800;2023-12-20T12:02:31;1.20;;;0.70;;
20034;SDS011;10178;48.034;9.800;2023-12-20T12:04:57;0.93;;;0.80;;
20034;SDS011;10178;48.034;9.800;2023-12-20T12:07:23;2.70;;;0.70;;
20034;SDS011;10178;48.034;9.800;2023-12-20T12:09:49;1.57;;;0.73;;
20034;SDS011;10178;48.034;9.800;2023-12-20T12:12:17;0.67;;;0.67;;
20034;SDS011;10178;48.034;9.800;2023-12-20T12:14:44;0.97;;;0.60;;
20034;SDS011;10178;48.034;9.800;2023-12-20T12:17:13;1.10;;;0.60;;
20034;SDS011;10178;48.034;9.800;2023-12-20T12:19:40;0.80;;;0.50;;
20034;SDS011;10178;48.034;9.800;2023-12-20T12:22:13;0.60;;;0.50;;
20034;SDS011;10178;48.034;9.800;2023-12-20T12:24:40;0.80;;;0.60;;
20034;SDS011;10178;48.034;9.800;2023-12-20T12:27:06;0.90;;;0.40;;
20034;SDS011;10178;48.034;9.800;2023-12-20T12:29:33;1.53;;;0.60;;
20034;SDS011;10178;48.034;9.800;2023-12-20T12:31:59;0.40;;;0.40;;
20034;SDS011;10178;48.034;9.800;2023-12-20T12:34:27;0.70;;;0.53;;
20034;SDS011;10178;48.034;9.800;2023-12-20T12:36:53;0.50;;;0.50;;
20034;SDS011;10178;48.034;9.800;2023-12-20T12:39:19;1.30;;;0.50;;
20034;SDS011;10178;48.034;9.800;2023-12-20T12:41:45;1.83;;;0.37;;
20034;SDS011;10178;48.034;9.800;2023-12-20T12:44:10;0.40;;;0.40;;
20034;SDS011;10178;48.034;9.800;2023-12-20T12:46:36;0.50;;;0.50;;
20034;SDS011;10178;48.034;9.800;2023-12-20T12:49:02;0.60;;;0.50;;
20034;SDS011;10178;48.034;9.800;2023-12-20T12:51:27;0.40;;;0.40;;
20034;SDS011;10178;48.034;9.800;2023-12-20T12:53:53;0.70;;;0.53;;
20034;SDS011;10178;48.034;9.800;2023-12-20T12:56:19;2.23;;;0.60;;
20034;SDS011;10178;48.034;9.800;2023-12-20T12:58:44;0.40;;;0.40;;
20034;SDS011;10178;48.034;9.800;2023-12-20T13:01:10;0.40;;;0.40;;
20034;SDS011;10178;48.034;9.800;2023-12-20T13:03:36;0.53;;;0.53;;
20034;SDS011;10178;48.034;9.800;2023-12-20T13:06:02;0.60;;;0.50;;
20034;SDS011;10178;48.034;9.800;2023-12-20T13:08:28;0.50;;;0.40;;
20034;SDS011;10178;48.034;9.800;2023-12-20T13:10:54;2.30;;;0.40;;
20034;SDS011;10178;48.034;9.800;2023-12-20T13:13:22;0.40;;;0.40;;
20034;SDS011;10178;48.034;9.800;2023-12-20T13:15:48;1.90;;;0.60;;
20034;SDS011;10178;48.034;9.800;2023-12-20T13:18:17;0.70;;;0.50;;
20034;SDS011;10178;48.034;9.800;2023-12-20T13:20:44;0.40;;;0.40;;
20034;SDS011;10178;48.034;9.800;2023-12-20T13:23:09;0.50;;;0.50;;
20034;SDS011;10178;48.034;9.800;2023-12-20T13:25:35;0.40;;;0.40;;
20034;SDS011;10178;48.034;9.800;2023-12-20T13:28:01;0.93;;;0.70;;
20034;SDS011;10178;48.034;9.800;2023-12-20T13:30:28;0.60;;;0.60;;
20034;SDS011;10178;48.034;9.800;2023-12-20T13:32:54;0.60;;;0.60;;
20034;SDS011;10178;48.034;9.800;2023-12-20T13:35:20;1.07;;;0.50;;
20034;SDS011;10178;48.034;9.800;2023-12-20T13:37:45;1.50;;;0.53;;
20034;SDS011;10178;48.034;9.800;2023-12-20T13:40:11;2.20;;;0.57;;
20034;SDS011;10178;48.034;9.800;2023-12-20T13:42:37;0.77;;;0.77;;
20034;SDS011;10178;48.034;9.800;2023-12-20T13:45:03;0.70;;;0.70;;
20034;SDS011;10178;48.034;9.800;2023-12-20T13:47:30;0.87;;;0.70;;
20034;SDS011;10178;48.034;9.800;2023-12-20T13:49:56;0.70;;;0.70;;
20034;SDS011;10178;48.034;9.800;2023-12-20T13:52:22;0.67;;;0.67;;
20034;SDS011;10178;48.034;9.800;2023-12-20T13:54:47;0.80;;;0.80;;
20034;SDS011;10178;48.034;9.800;2023-12-20T13:57:13;0.70;;;0.70;;
20034;SDS011;10178;48.034;9.800;2023-12-20T13:59:39;0.70;;;0.70;;
20034;SDS011;10178;48.034;9.800;2023-12-20T14:02:04;0.80;;;0.80;;
20034;SDS011;10178;48.034;9.800;2023-12-20T14:04:30;0.93;;;0.93;;
20034;SDS011;10178;48.034;9.800;2023-12-20T14:06:56;0.73;;;0.70;;
20034;SDS011;10178;48.034;9.800;2023-12-20T14:09:22;1.07;;;0.70;;
20034;SDS011;10178;48.034;9.800;2023-12-20T14:11:48;1.83;;;0.80;;
20034;SDS011;10178;48.034;9.800;2023-12-20T14:14:13;1.10;;;0.90;;
20034;SDS011;10178;48.034;9.800;2023-12-20T14:16:39;1.60;;;0.80;;
20034;SDS011;10178;48.034;9.800;2023-12-20T14:19:05;2.40;;;0.83;;
20034;SDS011;10178;48.034;9.800;2023-12-20T14:21:33;0.67;;;0.67;;
20034;SDS011;10178;48.034;9.800;2023-12-20T14:23:58;1.07;;;0.90;;
20034;SDS011;10178;48.034;9.800;2023-12-20T14:26:25;1.27;;;0.80;;
20034;SDS011;10178;48.034;9.800;2023-12-20T14:28:50;0.50;;;0.50;;
20034;SDS011;10178;48.034;9.800;2023-12-20T14:31:16;1.23;;;0.80;;
20034;SDS011;10178;48.034;9.800;2023-12-20T14:33:42;1.00;;;0.90;;
20034;SDS011;10178;48.034;9.800;2023-12-20T14:36:07;3.10;;;0.70;;
20034;SDS011;10178;48.034;9.800;2023-12-20T14:38:33;1.90;;;1.07;;
20034;SDS011;10178;48.034;9.800;2023-12-20T14:40:59;1.53;;;0.90;;
20034;SDS011;10178;48.034;9.800;2023-12-20T14:43:25;0.77;;;0.73;;
20034;SDS011;10178;48.034;9.800;2023-12-20T14:45:51;2.90;;;0.93;;
20034;SDS011;10178;48.034;9.800;2023-12-20T14:48:20;2.40;;;1.00;;
20034;SDS011;10178;48.034;9.800;2023-12-20T14:50:52;1.33;;;0.77;;
20034;SDS011;10178;48.034;9.800;2023-12-20T14:53:20;4.63;;;1.30;;